Latest Weather Observations for Jacup

IDW60801

Issued at 9:05 am WST Monday 24 November 2014 (issued every 30 minutes, with the page automatically refreshed every 10 minutes)

About weather observations | Map of weather stations | Latest weather observations for WA | Other Formats
Station Details ID: 010905 Name: JACUP Lat: -33.89 Lon: 119.11 Height: 305.0 m
Data from the previous 72 hours. | See also: Recent months at Jacup
Date/Time
WST
Temp
°C
App
Temp
°C
Dew
Point
Rel
Hum
%
Delta-T
°C
Wind Press
QNH
hPa
Press
MSL
hPa
Rain
since 9 am
mm
Dir
 
Spd
km/h
Gust
km/h
Spd
kts
Gust
kts
24/09:00am 15.5 11.2 5.4 51 4.9 ESE 17 24 9 13 1023.9 1023.3 0.0
24/08:30am 15.4 11.5 5.3 51 4.8 SE 15 20 8 11 1023.9 1023.3 0.0
24/08:00am 15.3 11.5 5.8 53 4.6 SE 15 22 8 12 1023.8 1023.2 0.0
24/07:30am 14.2 10.6 5.0 54 4.3 S 13 20 7 11 1023.6 1023.0 0.0
24/07:00am 13.3 10.6 5.5 59 3.7 S 9 15 5 8 1023.5 1022.9 0.0
24/06:30am 11.7 9.5 6.2 69 2.6 S 7 11 4 6 1023.2 1022.5 0.0
24/06:00am 9.9 7.8 5.9 76 1.9 W 6 7 3 4 1022.9 1022.2 0.0
24/05:30am 7.7 5.6 5.7 87 0.9 W 6 9 3 5 1022.7 1022.0 0.0
24/05:00am 5.4 4.1 3.9 90 0.6 CALM 0 0 0 0 1022.3 1021.6 0.0
24/04:30am 4.7 2.1 3.0 89 0.7 SW 6 9 3 5 1022.1 1021.4 0.0
24/04:00am 4.6 1.3 2.6 87 0.8 SW 9 11 5 6 1021.7 1021.0 0.0
24/03:30am 5.2 2.1 3.4 88 0.8 SSW 9 11 5 6 1021.5 1020.8 0.0
24/03:00am 5.0 2.1 2.7 85 1.0 SW 7 9 4 5 1021.5 1020.8 0.0
24/02:30am 6.0 2.9 3.7 85 1.0 SSW 9 9 5 5 1021.4 1020.7 0.0
24/02:00am 6.5 2.8 4.5 87 0.9 SSW 13 15 7 8 1021.3 1020.6 0.0
24/01:30am 5.7 2.7 3.9 88 0.8 SW 9 11 5 6 1021.4 1020.7 0.0
24/01:00am 5.4 2.6 3.3 86 0.9 SSW 7 11 4 6 1021.4 1020.7 0.0
24/12:30am 6.6 3.9 3.9 83 1.2 SSW 7 11 4 6 1021.3 1020.6 0.0
24/12:00am 7.3 4.4 4.8 84 1.1 SSW 9 13 5 7 1021.4 1020.7 0.0
 
Date/Time
WST
Temp
°C
App
Temp
°C
Dew
Point
Rel
Hum
%
Delta-T
°C
Wind Press
QNH
hPa
Press
MSL
hPa
Rain
since 9 am
mm
Dir
 
Spd
km/h
Gust
km/h
Spd
kts
Gust
kts
23/11:30pm 7.4 4.5 4.4 81 1.3 SSW 9 13 5 7 1021.4 1020.7 0.0
23/11:00pm 8.4 5.9 4.8 78 1.6 SSW 7 15 4 8 1021.4 1020.7 0.0
23/10:30pm 8.7 5.1 4.9 77 1.7 SSW 13 19 7 10 1021.3 1020.6 0.0
23/10:00pm 8.9 6.0 4.9 76 1.8 S 9 15 5 8 1021.3 1020.6 0.0
23/09:30pm 9.4 6.2 5.2 75 1.9 S 11 15 6 8 1021.2 1020.5 0.0
23/09:00pm 10.3 7.2 5.7 73 2.1 S 11 17 6 9 1021.0 1020.3 0.0
23/08:30pm 10.7 7.3 5.9 72 2.3 S 13 22 7 12 1020.5 1019.9 0.0
23/08:00pm 11.7 7.3 6.4 70 2.5 S 19 26 10 14 1020.1 1019.4 0.0
23/07:30pm 12.1 7.9 5.9 66 2.9 S 17 26 9 14 1019.5 1018.8 0.0
23/07:00pm 12.6 8.3 6.9 68 2.8 S 19 28 10 15 1019.2 1018.5 0.0
23/06:30pm 13.6 8.6 6.5 62 3.5 S 22 37 12 20 1018.7 1018.0 0.0
23/06:00pm 14.7 9.7 6.3 57 4.1 S 22 33 12 18 1018.0 1017.3 0.0
23/05:30pm 16.6 11.9 6.1 50 5.2 S 20 32 11 17 1017.2 1016.5 0.0
23/05:00pm 17.3 11.8 5.9 47 5.6 S 24 39 13 21 1016.7 1016.0 0.0
23/04:30pm 18.6 13.1 5.8 43 6.4 S 24 39 13 21 1016.3 1015.6 0.0
23/04:00pm 20.7 15.4 3.0 31 8.5 SW 20 30 11 16 1015.9 1015.2 0.0
23/03:30pm 21.4 16.3 3.1 30 8.8 SSW 19 30 10 16 1015.6 1014.9 0.0
23/03:00pm 21.0 15.6 2.3 29 8.8 SW 20 30 11 16 1015.4 1014.7 0.0
23/02:30pm 20.9 15.2 2.7 30 8.7 SSW 22 32 12 17 1015.5 1014.8 0.0
23/02:00pm 21.6 16.0 3.3 30 8.9 WSW 22 35 12 19 1015.4 1014.7 0.0
23/01:30pm 21.2 16.1 3.9 32 8.5 SW 20 37 11 20 1015.4 1014.7 0.0
23/01:00pm 21.7 16.8 3.9 31 8.7 SSW 19 33 10 18 1015.4 1014.7 0.0
23/12:30pm 21.0 15.2 4.6 34 8.1 SW 24 35 13 19 1015.3 1014.6 0.0
23/12:00pm 21.8 16.2 5.3 34 8.3 WSW 24 33 13 18 1015.2 1014.5 0.0
23/11:30am 21.1 15.3 4.6 34 8.2 WSW 24 33 13 18 1015.2 1014.5 0.0
23/11:00am 18.7 12.3 3.3 36 7.3 WSW 26 39 14 21 1015.6 1014.9 0.0
23/10:30am 18.6 12.9 4.8 40 6.7 WSW 24 35 13 19 1015.6 1014.9 0.0
23/10:00am 17.6 12.2 6.5 48 5.6 WSW 24 33 13 18 1015.5 1014.8 0.0
23/09:30am 16.7 12.1 6.5 51 5.1 WSW 20 33 11 18 1015.3 1014.6 0.0
23/09:00am 16.0 11.2 7.2 56 4.4 WSW 22 35 12 19 1015.3 1014.6 0.0
23/08:30am 15.5 10.5 8.0 61 3.8 WSW 24 37 13 20 1015.2 1014.5 0.0
23/08:00am 15.2 10.1 7.7 61 3.8 WSW 24 39 13 21 1015.1 1014.4 0.0
23/07:30am 15.7 10.2 7.7 59 4.1 WSW 26 37 14 20 1014.8 1014.0 0.0
23/07:00am 14.7 9.3 8.0 64 3.4 WSW 26 35 14 19 1014.4 1013.6 0.0
23/06:30am 13.5 9.0 8.4 71 2.6 W 22 32 12 17 1014.1 1013.3 0.0
23/06:00am 12.1 7.4 7.6 74 2.2 W 22 32 12 17 1013.9 1013.2 0.0
23/05:30am 10.5 7.0 7.4 81 1.5 WNW 15 24 8 13 1013.3 1012.6 0.0
23/05:00am 9.3 6.1 6.9 85 1.1 NW 13 20 7 11 1013.0 1012.3 0.0
23/04:30am 9.4 5.8 6.8 84 1.2 NW 15 20 8 11 1012.9 1012.2 0.0
23/04:00am 9.1 5.8 6.4 83 1.3 WNW 13 17 7 9 1012.8 1012.1 0.0
23/03:30am 9.1 6.1 6.0 81 1.4 WNW 11 13 6 7 1012.7 1012.0 0.0
23/03:00am 9.9 6.9 6.1 77 1.8 WNW 11 17 6 9 1012.5 1011.8 0.0
23/02:30am 10.3 6.9 5.9 74 2.1 WNW 13 15 7 8 1012.3 1011.6 0.0
23/02:00am 11.2 8.2 5.9 70 2.5 W 11 17 6 9 1012.3 1011.6 0.0
23/01:30am 13.1 9.4 6.2 63 3.3 W 15 24 8 13 1012.5 1011.8 0.0
23/01:00am 13.3 10.0 6.4 63 3.4 W 13 20 7 11 1012.7 1012.0 0.0
23/12:30am 13.4 9.4 6.5 63 3.4 W 17 26 9 14 1012.9 1012.2 0.0
23/12:00am 12.9 9.2 7.8 71 2.5 W 17 26 9 14 1013.0 1012.3 0.0
 
Date/Time
WST
Temp
°C
App
Temp
°C
Dew
Point
Rel
Hum
%
Delta-T
°C
Wind Press
QNH
hPa
Press
MSL
hPa
Rain
since 9 am
mm
Dir
 
Spd
km/h
Gust
km/h
Spd
kts
Gust
kts
22/11:30pm 12.4 11.0 9.6 83 1.4 N 7 11 4 6 1012.8 1012.1 0.0
22/11:00pm 11.8 10.3 9.2 84 1.3 N 7 13 4 7 1012.9 1012.2 0.0
22/10:30pm 12.2 12.1 9.4 83 1.4 CALM 0 0 0 0 1013.1 1012.4 0.0
22/10:00pm 11.4 10.8 8.8 84 1.3 SE 2 6 1 3 1013.3 1012.6 0.0
22/09:30pm 11.7 10.3 8.9 83 1.4 SE 6 7 3 4 1013.2 1012.5 0.0
22/09:00pm 11.5 10.0 8.5 82 1.5 SE 6 9 3 5 1013.1 1012.4 0.0
22/08:30pm 12.6 10.7 9.1 79 1.8 ESE 9 11 5 6 1012.7 1012.0 0.0
22/08:00pm 13.1 11.2 9.2 77 2.0 SE 9 13 5 7 1012.5 1011.8 0.0
22/07:30pm 14.0 12.1 9.0 72 2.6 SE 9 15 5 8 1012.2 1011.5 0.0
22/07:00pm 15.1 12.5 9.2 68 3.1 SE 13 17 7 9 1012.0 1011.3 0.0
22/06:30pm 16.3 13.3 9.3 63 3.7 SE 15 20 8 11 1011.6 1010.8 0.0
22/06:00pm 18.3 14.4 9.4 56 4.8 ESE 20 28 11 15 1011.2 1010.4 0.0
22/05:30pm 19.3 15.6 10.3 56 4.9 ESE 20 28 11 15 1010.8 1010.0 0.0
22/05:00pm 19.5 15.8 10.2 55 5.1 ESE 20 28 11 15 1010.6 1009.8 0.0
22/04:30pm 21.6 19.4 7.8 41 7.3 S 9 15 5 8 1010.4 1009.7 0.0
22/04:00pm 22.5 18.4 6.3 35 8.4 W 17 26 9 14 1010.4 1009.7 0.0
22/03:30pm 23.1 19.8 6.4 34 8.7 WSW 13 24 7 13 1010.6 1009.8 0.0
22/03:00pm 23.9 18.6 6.7 33 9.0 SW 24 33 13 18 1010.7 1009.9 0.0
22/02:30pm 23.1 19.8 6.4 34 8.7 W 13 22 7 12 1010.9 1010.1 0.0
22/02:00pm 23.6 19.0 6.4 33 9.0 W 20 32 11 17 1011.0 1010.2 0.0
22/01:30pm 24.2 19.6 6.5 32 9.3 W 20 30 11 16 1011.2 1010.4 0.0
22/01:00pm 22.8 18.4 6.6 35 8.4 WSW 19 32 10 17 1011.4 1010.6 0.0
22/12:30pm 24.2 19.3 6.9 33 9.1 WSW 22 30 12 16 1011.6 1010.8 0.0
22/12:00pm 21.8 17.1 6.1 36 8.0 W 20 35 11 19 1011.7 1010.9 0.0
22/11:30am 22.7 19.1 6.9 36 8.3 W 15 32 8 17 1011.9 1011.1 0.0
22/11:00am 22.1 18.8 7.9 40 7.5 W 15 26 8 14 1012.2 1011.5 0.0
22/10:30am 20.4 16.4 6.7 41 7.0 WNW 17 24 9 13 1012.5 1011.8 0.0
22/10:00am 19.3 15.2 7.7 47 6.0 W 19 26 10 14 1012.7 1012.0 0.0
22/09:30am 19.3 15.0 8.0 48 5.9 W 20 28 11 15 1012.7 1012.0 0.0
22/09:00am 18.0 13.7 7.7 51 5.3 W 20 26 11 14 1012.7 1012.0 0.2
22/08:30am 17.3 13.3 8.2 55 4.7 W 19 30 10 16 1012.8 1012.1 0.2
22/08:00am 16.2 12.0 8.2 59 4.1 W 20 32 11 17 1012.7 1012.0 0.2
22/07:30am 16.9 12.5 8.8 59 4.2 W 22 33 12 18 1012.6 1011.9 0.2
22/07:00am 15.8 12.4 9.0 64 3.5 W 17 30 9 16 1012.3 1011.6 0.2
22/06:30am 14.2 10.4 9.2 72 2.6 W 19 26 10 14 1012.3 1011.6 0.2
22/06:00am 13.1 10.2 9.5 79 1.9 W 15 22 8 12 1011.9 1011.1 0.2
22/05:30am 12.4 10.3 9.8 84 1.3 W 11 17 6 9 1011.8 1011.0 0.2
22/05:00am 11.5 9.0 9.8 89 0.9 W 13 17 7 9 1011.5 1010.7 0.2
22/04:30am 11.4 9.6 9.3 87 1.1 WNW 9 13 5 7 1011.4 1010.6 0.2
22/04:00am 12.1 9.9 9.3 83 1.4 W 11 15 6 8 1011.1 1010.3 0.2
22/03:30am 12.1 9.4 9.1 82 1.5 W 13 17 7 9 1010.9 1010.1 0.2
22/03:00am 12.3 9.7 9.5 83 1.4 W 13 19 7 10 1010.7 1009.9 0.2
22/02:30am 13.1 10.7 10.1 82 1.6 WSW 13 19 7 10 1010.7 1009.9 0.2
22/02:00am 13.2 10.3 9.8 80 1.8 W 15 20 8 11 1010.8 1010.0 0.2
22/01:30am 13.5 10.7 9.9 79 1.9 W 15 24 8 13 1010.8 1010.0 0.2
22/01:00am 14.0 10.8 10.0 77 2.1 W 17 26 9 14 1010.9 1010.1 0.2
22/12:30am 14.1 13.2 11.3 83 1.5 W 7 17 4 9 1011.1 1010.3 0.2
22/12:00am 14.0 14.5 11.7 86 1.3 CALM 0 0 0 0 1011.2 1010.4 0.2
 
Date/Time
WST
Temp
°C
App
Temp
°C
Dew
Point
Rel
Hum
%
Delta-T
°C
Wind Press
QNH
hPa
Press
MSL
hPa
Rain
since 9 am
mm
Dir
 
Spd
km/h
Gust
km/h
Spd
kts
Gust
kts
21/11:30pm 14.3 13.5 11.6 84 1.5 SW 7 9 4 5 1011.3 1010.5 0.2
21/11:00pm 14.4 13.6 11.6 83 1.5 SSW 7 11 4 6 1011.3 1010.5 0.2
21/10:30pm 14.6 13.8 11.6 82 1.6 S 7 11 4 6 1011.3 1010.5 0.2
21/10:00pm 14.6 13.5 11.9 84 1.5 SE 9 13 5 7 1011.2 1010.4 0.2
21/09:30pm 14.3 12.8 12.0 86 1.3 SE 11 15 6 8 1011.2 1010.4 0.2
21/09:00pm 13.2 12.3 11.3 88 1.0 ESE 7 9 4 5 1011.2 1010.4 0.2
21/08:30pm 13.2 11.7 10.6 84 1.4 SE 9 11 5 6 1010.9 1010.1 0.2
21/08:00pm 14.2 13.2 11.0 81 1.7 SE 7 11 4 6 1010.6 1009.8 0.2
21/07:30pm 15.2 13.6 11.4 78 2.1 SE 11 15 6 8 1010.0 1009.3 0.2
21/07:00pm 16.3 14.0 11.9 75 2.4 SE 15 20 8 11 1009.8 1009.1 0.2
21/06:30pm 17.6 15.4 12.1 70 3.1 SE 15 20 8 11 1009.6 1008.9 0.2
21/06:00pm 19.5 16.7 11.5 60 4.5 S 17 24 9 13 1008.9 1008.1 0.2
21/05:30pm 23.4 19.8 6.7 34 8.7 W 15 26 8 14 1008.2 1007.4 0.2
21/05:00pm 24.0 19.6 6.7 33 9.1 WSW 19 32 10 17 1008.0 1007.2 0.2
21/04:30pm 25.2 21.3 6.9 31 9.7 W 17 26 9 14 1007.9 1007.1 0.2
21/04:00pm 24.5 20.0 6.3 31 9.5 W 19 32 10 17 1007.7 1006.9 0.2
21/03:30pm 25.4 19.9 6.1 29 10.1 W 24 39 13 21 1007.7 1006.9 0.2
21/03:00pm 25.5 20.8 6.2 29 10.2 W 20 30 11 16 1007.7 1006.9 0.2
21/02:30pm 24.9 19.6 6.6 31 9.6 W 24 41 13 22 1007.8 1007.0 0.2
21/02:17pm 24.6 18.5 6.4 31 9.5 W 28 46 15 25 1008.0 1007.2 0.2
21/02:00pm 24.7 19.8 6.9 32 9.4 WSW 22 35 12 19 1008.0 1007.2 0.2
21/01:30pm 25.2 19.5 6.9 31 9.7 WSW 26 43 14 23 1008.1 1007.3 0.2
21/01:00pm 24.6 19.0 7.3 33 9.2 W 26 39 14 21 1008.3 1007.5 0.2
21/12:30pm 24.5 18.6 7.6 34 9.0 W 28 43 15 23 1008.6 1007.8 0.2
21/12:00pm 23.9 18.5 7.9 36 8.6 W 26 39 14 21 1008.9 1008.1 0.2
21/11:31am 22.4 16.2 7.8 39 7.7 W 30 48 16 26 1009.1 1008.3 0.2
21/11:30am 22.8 16.6 7.8 38 8.0 W 30 43 16 23 1009.1 1008.3 0.2
21/11:00am 22.8 17.9 9.9 44 7.1 W 26 46 14 25 1009.3 1008.6 0.2
21/10:53am 22.3 17.0 9.8 45 6.9 W 28 46 15 25 1009.5 1008.8 0.2
21/10:30am 21.2 17.0 11.2 53 5.6 WSW 24 41 13 22 1009.7 1009.0 0.2
21/10:00am 19.2 16.5 12.9 67 3.6 W 19 32 10 17 1010.0 1009.3 0.2
21/09:30am 16.7 14.0 12.8 78 2.2 WSW 19 30 10 16 1010.2 1009.5 0.0

Other Formats:

Comma delimited format used in spreadsheet applications
http://www.bom.gov.au/fwo/IDW60801/IDW60801.95636.axf

JavaScript Object Notation format (JSON) in row-major order
http://www.bom.gov.au/fwo/IDW60801/IDW60801.95636.json